sensor_id;sensor_type;location;lat;lon;timestamp;temperature;humidity
10417;DHT22;62605;49.432;8.680;2023-01-10T00:01:23;6.60;99.90
10417;DHT22;62605;49.432;8.680;2023-01-10T00:03:51;6.70;99.90
10417;DHT22;62605;49.432;8.680;2023-01-10T00:06:19;6.70;99.90
10417;DHT22;62605;49.432;8.680;2023-01-10T00:08:46;6.70;99.90
10417;DHT22;62605;49.432;8.680;2023-01-10T00:11:15;6.70;99.90
10417;DHT22;62605;49.432;8.680;2023-01-10T00:14:04;6.70;99.90
10417;DHT22;62605;49.432;8.680;2023-01-10T00:16:31;6.70;99.90
10417;DHT22;62605;49.432;8.680;2023-01-10T00:18:58;6.60;99.90
10417;DHT22;62605;49.432;8.680;2023-01-10T00:21:25;6.70;99.90
10417;DHT22;62605;49.432;8.680;2023-01-10T00:23:53;6.70;99.90
10417;DHT22;62605;49.432;8.680;2023-01-10T00:26:21;6.70;99.90
10417;DHT22;62605;49.432;8.680;2023-01-10T00:28:48;6.80;99.90
10417;DHT22;62605;49.432;8.680;2023-01-10T00:31:17;6.60;99.90
10417;DHT22;62605;49.432;8.680;2023-01-10T00:33:44;6.60;99.90
10417;DHT22;62605;49.432;8.680;2023-01-10T00:36:11;6.70;99.90
10417;DHT22;62605;49.432;8.680;2023-01-10T00:38:38;6.60;99.90
10417;DHT22;62605;49.432;8.680;2023-01-10T00:41:05;6.70;99.90
10417;DHT22;62605;49.432;8.680;2023-01-10T00:43:54;6.60;99.90
10417;DHT22;62605;49.432;8.680;2023-01-10T00:46:23;6.70;99.90
10417;DHT22;62605;49.432;8.680;2023-01-10T00:48:50;6.70;99.90
10417;DHT22;62605;49.432;8.680;2023-01-10T00:51:17;6.70;99.90
10417;DHT22;62605;49.432;8.680;2023-01-10T00:53:44;6.60;99.90
10417;DHT22;62605;49.432;8.680;2023-01-10T00:56:11;6.70;99.90
10417;DHT22;62605;49.432;8.680;2023-01-10T00:58:38;6.70;99.90
10417;DHT22;62605;49.432;8.680;2023-01-10T01:01:06;6.70;99.90
10417;DHT22;62605;49.432;8.680;2023-01-10T01:03:33;6.70;99.90
10417;DHT22;62605;49.432;8.680;2023-01-10T01:06:03;6.60;99.90
10417;DHT22;62605;49.432;8.680;2023-01-10T01:08:31;6.60;99.90
10417;DHT22;62605;49.432;8.680;2023-01-10T01:10:58;6.60;99.90
10417;DHT22;62605;49.432;8.680;2023-01-10T01:13:25;6.60;99.90
10417;DHT22;62605;49.432;8.680;2023-01-10T01:15:52;6.60;99.90
10417;DHT22;62605;49.432;8.680;2023-01-10T01:18:20;6.70;99.90
10417;DHT22;62605;49.432;8.680;2023-01-10T01:20:51;6.70;99.90
10417;DHT22;62605;49.432;8.680;2023-01-10T01:23:18;6.70;99.90
10417;DHT22;62605;49.432;8.680;2023-01-10T01:25:49;6.70;99.90
10417;DHT22;62605;49.432;8.680;2023-01-10T01:28:16;6.60;99.90
10417;DHT22;62605;49.432;8.680;2023-01-10T01:30:43;6.70;99.90
10417;DHT22;62605;49.432;8.680;2023-01-10T01:33:10;6.70;99.90
10417;DHT22;62605;49.432;8.680;2023-01-10T01:35:42;6.60;99.90
10417;DHT22;62605;49.432;8.680;2023-01-10T01:38:09;6.50;99.90
10417;DHT22;62605;49.432;8.680;2023-01-10T01:40:37;6.60;99.90
10417;DHT22;62605;49.432;8.680;2023-01-10T01:43:18;6.50;99.90
10417;DHT22;62605;49.432;8.680;2023-01-10T01:45:47;6.50;99.90
10417;DHT22;62605;49.432;8.680;2023-01-10T01:48:29;6.50;99.90
10417;DHT22;62605;49.432;8.680;2023-01-10T01:51:03;6.50;99.90
10417;DHT22;62605;49.432;8.680;2023-01-10T01:53:36;6.50;99.90
10417;DHT22;62605;49.432;8.680;2023-01-10T01:56:07;6.40;99.90
10417;DHT22;62605;49.432;8.680;2023-01-10T01:58:39;6.40;99.90
10417;DHT22;62605;49.432;8.680;2023-01-10T02:01:07;6.50;99.90
10417;DHT22;62605;49.432;8.680;2023-01-10T02:03:35;6.50;99.90
10417;DHT22;62605;49.432;8.680;2023-01-10T02:06:06;6.50;99.90
10417;DHT22;62605;49.432;8.680;2023-01-10T02:08:33;6.50;99.90
10417;DHT22;62605;49.432;8.680;2023-01-10T02:11:04;6.50;99.90
10417;DHT22;62605;49.432;8.680;2023-01-10T02:13:33;6.50;99.90
10417;DHT22;62605;49.432;8.680;2023-01-10T02:16:03;6.40;99.90
10417;DHT22;62605;49.432;8.680;2023-01-10T02:18:30;6.50;99.90
10417;DHT22;62605;49.432;8.680;2023-01-10T02:21:14;6.40;99.90
10417;DHT22;62605;49.432;8.680;2023-01-10T02:24:18;6.50;99.90
10417;DHT22;62605;49.432;8.680;2023-01-10T02:27:21;6.50;99.90
10417;DHT22;62605;49.432;8.680;2023-01-10T02:30:14;6.50;99.90
10417;DHT22;62605;49.432;8.680;2023-01-10T02:32:54;6.50;99.90
10417;DHT22;62605;49.432;8.680;2023-01-10T02:35:37;6.50;99.90
10417;DHT22;62605;49.432;8.680;2023-01-10T02:38:15;6.50;99.90
10417;DHT22;62605;49.432;8.680;2023-01-10T02:40:50;6.50;99.90
10417;DHT22;62605;49.432;8.680;2023-01-10T02:43:21;6.40;99.90
10417;DHT22;62605;49.432;8.680;2023-01-10T02:45:55;6.50;99.90
10417;DHT22;62605;49.432;8.680;2023-01-10T02:48:26;6.50;99.90
10417;DHT22;62605;49.432;8.680;2023-01-10T02:50:57;6.60;99.90
10417;DHT22;62605;49.432;8.680;2023-01-10T02:53:29;6.60;99.90
10417;DHT22;62605;49.432;8.680;2023-01-10T02:56:20;6.60;99.90
10417;DHT22;62605;49.432;8.680;2023-01-10T02:59:10;6.50;99.90
10417;DHT22;62605;49.432;8.680;2023-01-10T03:01:47;6.50;99.90
10417;DHT22;62605;49.432;8.680;2023-01-10T03:04:29;6.50;99.90
10417;DHT22;62605;49.432;8.680;2023-01-10T03:07:08;6.50;99.90
10417;DHT22;62605;49.432;8.680;2023-01-10T03:09:47;6.50;99.90
10417;DHT22;62605;49.432;8.680;2023-01-10T03:12:22;6.40;99.90
10417;DHT22;62605;49.432;8.680;2023-01-10T03:14:52;6.50;99.90
10417;DHT22;62605;49.432;8.680;2023-01-10T03:17:20;6.50;99.90
10417;DHT22;62605;49.432;8.680;2023-01-10T03:19:51;6.50;99.90
10417;DHT22;62605;49.432;8.680;2023-01-10T03:22:20;6.50;99.90
10417;DHT22;62605;49.432;8.680;2023-01-10T03:24:48;6.40;99.90
10417;DHT22;62605;49.432;8.680;2023-01-10T03:27:20;6.40;99.90
10417;DHT22;62605;49.432;8.680;2023-01-10T03:29:51;6.40;99.90
10417;DHT22;62605;49.432;8.680;2023-01-10T03:32:24;6.40;99.90
10417;DHT22;62605;49.432;8.680;2023-01-10T03:34:53;6.40;99.90
10417;DHT22;62605;49.432;8.680;2023-01-10T03:37:25;6.40;99.90
10417;DHT22;62605;49.432;8.680;2023-01-10T03:40:02;6.40;99.90
10417;DHT22;62605;49.432;8.680;2023-01-10T03:42:35;6.40;99.90
10417;DHT22;62605;49.432;8.680;2023-01-10T03:45:27;6.40;99.90
10417;DHT22;62605;49.432;8.680;2023-01-10T03:47:55;6.40;99.90
10417;DHT22;62605;49.432;8.680;2023-01-10T03:50:26;6.40;99.90
10417;DHT22;62605;49.432;8.680;2023-01-10T03:52:54;6.30;99.90
10417;DHT22;62605;49.432;8.680;2023-01-10T03:55:23;6.30;99.90
10417;DHT22;62605;49.432;8.680;2023-01-10T03:57:51;6.20;99.90
10417;DHT22;62605;49.432;8.680;2023-01-10T04:00:19;6.20;99.90
10417;DHT22;62605;49.432;8.680;2023-01-10T04:02:46;6.10;99.90
10417;DHT22;62605;49.432;8.680;2023-01-10T04:05:13;6.20;99.90
10417;DHT22;62605;49.432;8.680;2023-01-10T04:07:42;6.20;99.90
10417;DHT22;62605;49.432;8.680;2023-01-10T04:10:09;6.20;99.90
10417;DHT22;62605;49.432;8.680;2023-01-10T04:12:36;6.20;99.90
10417;DHT22;62605;49.432;8.680;2023-01-10T04:15:04;6.20;99.90
10417;DHT22;62605;49.432;8.680;2023-01-10T04:17:32;6.20;99.90
10417;DHT22;62605;49.432;8.680;2023-01-10T04:19:59;6.20;99.90
10417;DHT22;62605;49.432;8.680;2023-01-10T04:22:26;6.20;99.90
10417;DHT22;62605;49.432;8.680;2023-01-10T04:24:54;6.30;99.90
10417;DHT22;62605;49.432;8.680;2023-01-10T04:27:21;6.20;99.90
10417;DHT22;62605;49.432;8.680;2023-01-10T04:29:49;6.20;99.90
10417;DHT22;62605;49.432;8.680;2023-01-10T04:32:16;6.20;99.90
10417;DHT22;62605;49.432;8.680;2023-01-10T04:34:43;6.20;99.90
10417;DHT22;62605;49.432;8.680;2023-01-10T04:37:10;6.20;99.90
10417;DHT22;62605;49.432;8.680;2023-01-10T04:39:37;6.30;99.90
10417;DHT22;62605;49.432;8.680;2023-01-10T04:42:05;6.20;99.90
10417;DHT22;62605;49.432;8.680;2023-01-10T04:44:32;6.30;99.90
10417;DHT22;62605;49.432;8.680;2023-01-10T04:46:59;6.30;99.90
10417;DHT22;62605;49.432;8.680;2023-01-10T04:49:26;6.30;99.90
10417;DHT22;62605;49.432;8.680;2023-01-10T04:51:53;6.20;99.90
10417;DHT22;62605;49.432;8.680;2023-01-10T04:54:21;6.30;99.90
10417;DHT22;62605;49.432;8.680;2023-01-10T04:56:50;6.30;99.90
10417;DHT22;62605;49.432;8.680;2023-01-10T04:59:18;6.40;99.90
10417;DHT22;62605;49.432;8.680;2023-01-10T05:01:45;6.40;99.90
10417;DHT22;62605;49.432;8.680;2023-01-10T05:04:13;6.40;99.90
10417;DHT22;62605;49.432;8.680;2023-01-10T05:06:40;6.30;99.90
10417;DHT22;62605;49.432;8.680;2023-01-10T05:09:07;6.40;99.90
10417;DHT22;62605;49.432;8.680;2023-01-10T05:11:34;6.30;99.90
10417;DHT22;62605;49.432;8.680;2023-01-10T05:14:01;6.20;99.90
10417;DHT22;62605;49.432;8.680;2023-01-10T05:16:30;6.30;99.90
10417;DHT22;62605;49.432;8.680;2023-01-10T05:18:57;6.30;99.90
10417;DHT22;62605;49.432;8.680;2023-01-10T05:21:24;6.30;99.90
10417;DHT22;62605;49.432;8.680;2023-01-10T05:23:54;6.30;99.90
10417;DHT22;62605;49.432;8.680;2023-01-10T05:26:22;6.40;99.90
10417;DHT22;62605;49.432;8.680;2023-01-10T05:28:50;6.30;99.90
10417;DHT22;62605;49.432;8.680;2023-01-10T05:31:18;6.40;99.90
10417;DHT22;62605;49.432;8.680;2023-01-10T05:33:48;6.30;99.90
10417;DHT22;62605;49.432;8.680;2023-01-10T05:36:17;6.40;99.90
10417;DHT22;62605;49.432;8.680;2023-01-10T05:38:45;6.30;99.90
10417;DHT22;62605;49.432;8.680;2023-01-10T05:41:12;6.30;99.90
10417;DHT22;62605;49.432;8.680;2023-01-10T05:43:39;6.30;99.90
10417;DHT22;62605;49.432;8.680;2023-01-10T05:46:06;6.30;99.90
10417;DHT22;62605;49.432;8.680;2023-01-10T05:48:32;6.30;99.90
10417;DHT22;62605;49.432;8.680;2023-01-10T05:51:01;6.30;99.90
10417;DHT22;62605;49.432;8.680;2023-01-10T05:53:28;6.30;99.90
10417;DHT22;62605;49.432;8.680;2023-01-10T05:55:58;6.20;99.90
10417;DHT22;62605;49.432;8.680;2023-01-10T05:58:25;6.30;99.90
10417;DHT22;62605;49.432;8.680;2023-01-10T06:00:55;6.30;99.90
10417;DHT22;62605;49.432;8.680;2023-01-10T06:03:22;6.30;99.90
10417;DHT22;62605;49.432;8.680;2023-01-10T06:05:51;6.20;99.90
10417;DHT22;62605;49.432;8.680;2023-01-10T06:08:20;6.20;99.90
10417;DHT22;62605;49.432;8.680;2023-01-10T06:10:47;6.20;99.90
10417;DHT22;62605;49.432;8.680;2023-01-10T06:13:15;6.20;99.90
10417;DHT22;62605;49.432;8.680;2023-01-10T06:15:42;6.00;99.90
10417;DHT22;62605;49.432;8.680;2023-01-10T06:18:09;6.10;99.90
10417;DHT22;62605;49.432;8.680;2023-01-10T06:20:36;6.10;99.90
10417;DHT22;62605;49.432;8.680;2023-01-10T06:23:03;6.10;99.90
10417;DHT22;62605;49.432;8.680;2023-01-10T06:25:34;6.10;99.90
10417;DHT22;62605;49.432;8.680;2023-01-10T06:28:02;6.10;99.90
10417;DHT22;62605;49.432;8.680;2023-01-10T06:30:29;6.20;99.90
10417;DHT22;62605;49.432;8.680;2023-01-10T06:32:59;6.20;99.90
10417;DHT22;62605;49.432;8.680;2023-01-10T06:35:27;6.10;99.90
10417;DHT22;62605;49.432;8.680;2023-01-10T06:37:54;6.20;99.90
10417;DHT22;62605;49.432;8.680;2023-01-10T06:40:21;6.10;99.90
10417;DHT22;62605;49.432;8.680;2023-01-10T06:42:50;6.20;99.90
10417;DHT22;62605;49.432;8.680;2023-01-10T06:45:17;6.20;99.90
10417;DHT22;62605;49.432;8.680;2023-01-10T06:47:44;6.20;99.90
10417;DHT22;62605;49.432;8.680;2023-01-10T06:50:12;6.10;99.90
10417;DHT22;62605;49.432;8.680;2023-01-10T06:52:39;6.20;99.90
10417;DHT22;62605;49.432;8.680;2023-01-10T06:55:07;6.20;99.90
10417;DHT22;62605;49.432;8.680;2023-01-10T06:57:34;6.30;99.90
10417;DHT22;62605;49.432;8.680;2023-01-10T07:00:06;6.30;99.90
10417;DHT22;62605;49.432;8.680;2023-01-10T07:02:33;6.20;99.90
10417;DHT22;62605;49.432;8.680;2023-01-10T07:05:00;6.30;99.90
10417;DHT22;62605;49.432;8.680;2023-01-10T07:07:28;6.30;99.90
10417;DHT22;62605;49.432;8.680;2023-01-10T07:09:55;6.30;99.90
10417;DHT22;62605;49.432;8.680;2023-01-10T07:12:24;6.20;99.90
10417;DHT22;62605;49.432;8.680;2023-01-10T07:14:51;6.20;99.90
10417;DHT22;62605;49.432;8.680;2023-01-10T07:17:20;6.20;99.90
10417;DHT22;62605;49.432;8.680;2023-01-10T07:19:47;6.30;99.90
10417;DHT22;62605;49.432;8.680;2023-01-10T07:22:14;6.10;99.90
10417;DHT22;62605;49.432;8.680;2023-01-10T07:24:43;6.10;99.90
10417;DHT22;62605;49.432;8.680;2023-01-10T07:27:11;6.10;99.90
10417;DHT22;62605;49.432;8.680;2023-01-10T07:29:38;6.10;99.90
10417;DHT22;62605;49.432;8.680;2023-01-10T07:32:05;6.10;99.90
10417;DHT22;62605;49.432;8.680;2023-01-10T07:34:34;6.10;99.90
10417;DHT22;62605;49.432;8.680;2023-01-10T07:37:01;6.20;99.90
10417;DHT22;62605;49.432;8.680;2023-01-10T07:39:28;6.20;99.90
10417;DHT22;62605;49.432;8.680;2023-01-10T07:41:55;6.10;99.90
10417;DHT22;62605;49.432;8.680;2023-01-10T07:44:22;6.20;99.90
10417;DHT22;62605;49.432;8.680;2023-01-10T07:46:49;6.20;99.90
10417;DHT22;62605;49.432;8.680;2023-01-10T07:49:16;6.20;99.90
10417;DHT22;62605;49.432;8.680;2023-01-10T07:51:44;6.10;99.90
10417;DHT22;62605;49.432;8.680;2023-01-10T07:54:12;6.10;99.90
10417;DHT22;62605;49.432;8.680;2023-01-10T07:56:39;6.20;99.90
10417;DHT22;62605;49.432;8.680;2023-01-10T07:59:06;6.10;99.90
10417;DHT22;62605;49.432;8.680;2023-01-10T08:01:33;6.20;99.90
10417;DHT22;62605;49.432;8.680;2023-01-10T08:04:00;6.20;99.90
10417;DHT22;62605;49.432;8.680;2023-01-10T08:06:27;6.20;99.90
10417;DHT22;62605;49.432;8.680;2023-01-10T08:08:55;6.30;99.90
10417;DHT22;62605;49.432;8.680;2023-01-10T08:11:22;6.20;99.90
10417;DHT22;62605;49.432;8.680;2023-01-10T08:13:49;6.10;99.90
10417;DHT22;62605;49.432;8.680;2023-01-10T08:16:16;6.10;99.90
10417;DHT22;62605;49.432;8.680;2023-01-10T08:18:45;6.20;99.90
10417;DHT22;62605;49.432;8.680;2023-01-10T08:21:13;6.20;99.90
10417;DHT22;62605;49.432;8.680;2023-01-10T08:23:40;6.30;99.90
10417;DHT22;62605;49.432;8.680;2023-01-10T08:26:08;6.20;99.90
10417;DHT22;62605;49.432;8.680;2023-01-10T08:28:35;6.20;99.90
10417;DHT22;62605;49.432;8.680;2023-01-10T08:31:05;6.30;99.90
10417;DHT22;62605;49.432;8.680;2023-01-10T08:33:35;6.30;99.90
10417;DHT22;62605;49.432;8.680;2023-01-10T08:36:13;6.30;99.90
10417;DHT22;62605;49.432;8.680;2023-01-10T08:38:40;6.30;99.90
10417;DHT22;62605;49.432;8.680;2023-01-10T08:41:08;6.30;99.90
10417;DHT22;62605;49.432;8.680;2023-01-10T08:43:35;6.30;99.90
10417;DHT22;62605;49.432;8.680;2023-01-10T08:46:05;6.30;99.90
10417;DHT22;62605;49.432;8.680;2023-01-10T08:48:35;6.30;99.90
10417;DHT22;62605;49.432;8.680;2023-01-10T08:51:05;6.30;99.90
10417;DHT22;62605;49.432;8.680;2023-01-10T08:53:35;6.30;99.90
10417;DHT22;62605;49.432;8.680;2023-01-10T08:56:09;6.40;99.90
10417;DHT22;62605;49.432;8.680;2023-01-10T08:58:36;6.30;99.90
10417;DHT22;62605;49.432;8.680;2023-01-10T09:01:04;6.40;99.90
10417;DHT22;62605;49.432;8.680;2023-01-10T09:03:31;6.40;99.90
10417;DHT22;62605;49.432;8.680;2023-01-10T09:05:59;6.40;99.90
10417;DHT22;62605;49.432;8.680;2023-01-10T09:08:26;6.30;99.90
10417;DHT22;62605;49.432;8.680;2023-01-10T09:10:53;6.40;99.90
10417;DHT22;62605;49.432;8.680;2023-01-10T09:13:22;6.50;99.90
10417;DHT22;62605;49.432;8.680;2023-01-10T09:15:50;6.50;99.90
10417;DHT22;62605;49.432;8.680;2023-01-10T09:18:17;6.40;99.90
10417;DHT22;62605;49.432;8.680;2023-01-10T09:20:44;6.40;99.90
10417;DHT22;62605;49.432;8.680;2023-01-10T09:23:13;6.50;99.90
10417;DHT22;62605;49.432;8.680;2023-01-10T09:25:42;6.50;99.90
10417;DHT22;62605;49.432;8.680;2023-01-10T09:28:09;6.50;99.90
10417;DHT22;62605;49.432;8.680;2023-01-10T09:30:38;6.50;99.90
10417;DHT22;62605;49.432;8.680;2023-01-10T09:33:05;6.50;99.90
10417;DHT22;62605;49.432;8.680;2023-01-10T09:35:35;6.50;99.90
10417;DHT22;62605;49.432;8.680;2023-01-10T09:38:03;6.50;99.90
10417;DHT22;62605;49.432;8.680;2023-01-10T09:40:49;6.60;99.90
10417;DHT22;62605;49.432;8.680;2023-01-10T09:43:25;6.60;99.90
10417;DHT22;62605;49.432;8.680;2023-01-10T09:46:00;6.50;99.90
10417;DHT22;62605;49.432;8.680;2023-01-10T09:48:34;6.70;99.90
10417;DHT22;62605;49.432;8.680;2023-01-10T09:51:18;6.80;99.90
10417;DHT22;62605;49.432;8.680;2023-01-10T09:53:49;6.80;99.90
10417;DHT22;62605;49.432;8.680;2023-01-10T09:56:17;6.60;99.90
10417;DHT22;62605;49.432;8.680;2023-01-10T09:58:45;6.70;99.90
10417;DHT22;62605;49.432;8.680;2023-01-10T10:01:26;6.70;99.90
10417;DHT22;62605;49.432;8.680;2023-01-10T10:04:01;6.70;99.90
10417;DHT22;62605;49.432;8.680;2023-01-10T10:06:28;6.70;99.90
10417;DHT22;62605;49.432;8.680;2023-01-10T10:08:56;6.60;99.90
10417;DHT22;62605;49.432;8.680;2023-01-10T10:11:37;6.60;99.90
10417;DHT22;62605;49.432;8.680;2023-01-10T10:14:18;6.70;99.90
10417;DHT22;62605;49.432;8.680;2023-01-10T10:17:05;6.70;99.90
10417;DHT22;62605;49.432;8.680;2023-01-10T10:19:47;6.70;99.90
10417;DHT22;62605;49.432;8.680;2023-01-10T10:22:22;6.70;99.90
10417;DHT22;62605;49.432;8.680;2023-01-10T10:24:58;6.80;99.90
10417;DHT22;62605;49.432;8.680;2023-01-10T10:27:34;6.80;99.90
10417;DHT22;62605;49.432;8.680;2023-01-10T10:30:27;6.70;99.90
10417;DHT22;62605;49.432;8.680;2023-01-10T10:35:52;6.80;99.90
10417;DHT22;62605;49.432;8.680;2023-01-10T10:38:24;6.80;99.90
10417;DHT22;62605;49.432;8.680;2023-01-10T10:40:55;7.00;99.90
10417;DHT22;62605;49.432;8.680;2023-01-10T10:43:30;7.00;99.90
10417;DHT22;62605;49.432;8.680;2023-01-10T10:46:01;7.00;99.90
10417;DHT22;62605;49.432;8.680;2023-01-10T10:48:32;7.00;99.90
10417;DHT22;62605;49.432;8.680;2023-01-10T10:51:04;7.00;99.90
10417;DHT22;62605;49.432;8.680;2023-01-10T10:53:34;7.00;99.90
10417;DHT22;62605;49.432;8.680;2023-01-10T10:56:02;7.00;99.90
10417;DHT22;62605;49.432;8.680;2023-01-10T10:58:30;7.00;99.90
10417;DHT22;62605;49.432;8.680;2023-01-10T11:00:57;7.00;99.90
10417;DHT22;62605;49.432;8.680;2023-01-10T11:03:39;6.90;99.90
10417;DHT22;62605;49.432;8.680;2023-01-10T11:06:09;6.90;99.90
10417;DHT22;62605;49.432;8.680;2023-01-10T11:08:38;7.00;99.90
10417;DHT22;62605;49.432;8.680;2023-01-10T11:11:15;7.00;99.90
10417;DHT22;62605;49.432;8.680;2023-01-10T11:13:46;7.10;99.90
10417;DHT22;62605;49.432;8.680;2023-01-10T11:16:29;7.20;99.90
10417;DHT22;62605;49.432;8.680;2023-01-10T11:19:19;7.30;99.90
10417;DHT22;62605;49.432;8.680;2023-01-10T11:21:49;7.30;99.90
10417;DHT22;62605;49.432;8.680;2023-01-10T11:24:25;7.30;99.90
10417;DHT22;62605;49.432;8.680;2023-01-10T11:26:52;7.20;99.90
10417;DHT22;62605;49.432;8.680;2023-01-10T11:29:24;7.30;99.90
10417;DHT22;62605;49.432;8.680;2023-01-10T11:31:53;7.30;99.90
10417;DHT22;62605;49.432;8.680;2023-01-10T11:34:23;7.20;99.90
10417;DHT22;62605;49.432;8.680;2023-01-10T11:36:53;7.30;99.90
10417;DHT22;62605;49.432;8.680;2023-01-10T11:39:20;7.30;99.90
10417;DHT22;62605;49.432;8.680;2023-01-10T11:41:47;7.20;99.90
10417;DHT22;62605;49.432;8.680;2023-01-10T11:44:21;7.30;99.90
10417;DHT22;62605;49.432;8.680;2023-01-10T11:46:52;7.30;99.90
10417;DHT22;62605;49.432;8.680;2023-01-10T11:49:28;7.30;99.90
10417;DHT22;62605;49.432;8.680;2023-01-10T11:52:02;7.30;99.90
10417;DHT22;62605;49.432;8.680;2023-01-10T11:54:31;7.40;99.90
10417;DHT22;62605;49.432;8.680;2023-01-10T11:57:01;7.40;99.90
10417;DHT22;62605;49.432;8.680;2023-01-10T11:59:31;7.40;99.90
10417;DHT22;62605;49.432;8.680;2023-01-10T12:02:00;7.30;99.90
10417;DHT22;62605;49.432;8.680;2023-01-10T12:04:32;7.30;99.90
10417;DHT22;62605;49.432;8.680;2023-01-10T12:07:08;7.20;99.90
10417;DHT22;62605;49.432;8.680;2023-01-10T12:09:39;7.40;99.90
10417;DHT22;62605;49.432;8.680;2023-01-10T12:12:16;7.50;99.90
10417;DHT22;62605;49.432;8.680;2023-01-10T12:14:43;7.50;99.90
10417;DHT22;62605;49.432;8.680;2023-01-10T12:17:16;7.50;99.90
10417;DHT22;62605;49.432;8.680;2023-01-10T12:19:47;7.50;99.90
10417;DHT22;62605;49.432;8.680;2023-01-10T12:22:15;7.40;99.90
10417;DHT22;62605;49.432;8.680;2023-01-10T12:24:44;7.40;99.90
10417;DHT22;62605;49.432;8.680;2023-01-10T12:27:14;7.30;99.90
10417;DHT22;62605;49.432;8.680;2023-01-10T12:29:48;7.30;99.90
10417;DHT22;62605;49.432;8.680;2023-01-10T12:32:22;7.30;99.90
10417;DHT22;62605;49.432;8.680;2023-01-10T12:34:56;7.40;99.90
10417;DHT22;62605;49.432;8.680;2023-01-10T12:37:29;7.50;99.90
10417;DHT22;62605;49.432;8.680;2023-01-10T12:40:04;7.40;99.90
10417;DHT22;62605;49.432;8.680;2023-01-10T12:42:44;7.40;99.90
10417;DHT22;62605;49.432;8.680;2023-01-10T12:45:37;7.40;99.90
10417;DHT22;62605;49.432;8.680;2023-01-10T12:48:13;7.40;99.90
10417;DHT22;62605;49.432;8.680;2023-01-10T12:50:45;7.40;99.90
10417;DHT22;62605;49.432;8.680;2023-01-10T12:53:24;7.40;99.90
10417;DHT22;62605;49.432;8.680;2023-01-10T12:56:01;7.40;99.90
10417;DHT22;62605;49.432;8.680;2023-01-10T12:58:39;7.40;99.90
10417;DHT22;62605;49.432;8.680;2023-01-10T13:01:10;7.50;99.90
10417;DHT22;62605;49.432;8.680;2023-01-10T13:03:38;7.60;99.90
10417;DHT22;62605;49.432;8.680;2023-01-10T13:06:10;7.60;99.90
10417;DHT22;62605;49.432;8.680;2023-01-10T13:08:42;7.60;99.90
10417;DHT22;62605;49.432;8.680;2023-01-10T13:11:12;7.40;99.90
10417;DHT22;62605;49.432;8.680;2023-01-10T13:13:42;7.50;99.90
10417;DHT22;62605;49.432;8.680;2023-01-10T13:16:23;7.50;99.90
10417;DHT22;62605;49.432;8.680;2023-01-10T13:19:04;7.70;99.90
10417;DHT22;62605;49.432;8.680;2023-01-10T13:21:37;7.70;99.90
10417;DHT22;62605;49.432;8.680;2023-01-10T13:24:06;7.60;99.90
10417;DHT22;62605;49.432;8.680;2023-01-10T13:26:49;7.60;99.90
10417;DHT22;62605;49.432;8.680;2023-01-10T13:29:19;7.60;99.90
10417;DHT22;62605;49.432;8.680;2023-01-10T13:31:47;7.50;99.90
10417;DHT22;62605;49.432;8.680;2023-01-10T13:34:22;7.50;99.90
10417;DHT22;62605;49.432;8.680;2023-01-10T13:36:54;7.40;99.90
10417;DHT22;62605;49.432;8.680;2023-01-10T13:39:26;7.50;99.90
10417;DHT22;62605;49.432;8.680;2023-01-10T13:42:22;7.60;99.90
10417;DHT22;62605;49.432;8.680;2023-01-10T13:45:29;7.60;99.90
10417;DHT22;62605;49.432;8.680;2023-01-10T13:50:51;7.70;99.90
10417;DHT22;62605;49.432;8.680;2023-01-10T13:53:53;7.70;99.90
10417;DHT22;62605;49.432;8.680;2023-01-10T13:56:43;7.70;99.90
10417;DHT22;62605;49.432;8.680;2023-01-10T13:59:12;7.80;99.90
10417;DHT22;62605;49.432;8.680;2023-01-10T14:02:00;7.80;99.90
10417;DHT22;62605;49.432;8.680;2023-01-10T14:05:00;7.80;99.90
10417;DHT22;62605;49.432;8.680;2023-01-10T14:07:41;7.70;99.90
10417;DHT22;62605;49.432;8.680;2023-01-10T14:10:19;7.70;99.90
10417;DHT22;62605;49.432;8.680;2023-01-10T14:12:50;7.70;99.90
10417;DHT22;62605;49.432;8.680;2023-01-10T14:15:22;7.70;99.90
10417;DHT22;62605;49.432;8.680;2023-01-10T14:17:57;7.70;99.90
10417;DHT22;62605;49.432;8.680;2023-01-10T14:20:25;7.70;99.90
10417;DHT22;62605;49.432;8.680;2023-01-10T14:23:01;7.70;99.90
10417;DHT22;62605;49.432;8.680;2023-01-10T14:25:33;7.70;99.90
10417;DHT22;62605;49.432;8.680;2023-01-10T14:28:01;7.80;99.90
10417;DHT22;62605;49.432;8.680;2023-01-10T14:30:31;7.80;99.90
10417;DHT22;62605;49.432;8.680;2023-01-10T14:33:03;7.80;99.90
10417;DHT22;62605;49.432;8.680;2023-01-10T14:35:36;7.70;99.90
10417;DHT22;62605;49.432;8.680;2023-01-10T14:38:06;7.70;99.90
10417;DHT22;62605;49.432;8.680;2023-01-10T14:40:39;7.70;99.90
10417;DHT22;62605;49.432;8.680;2023-01-10T14:43:11;7.60;99.90
10417;DHT22;62605;49.432;8.680;2023-01-10T14:45:44;7.50;99.90
10417;DHT22;62605;49.432;8.680;2023-01-10T14:48:25;7.50;99.90
10417;DHT22;62605;49.432;8.680;2023-01-10T14:51:04;7.50;99.90
10417;DHT22;62605;49.432;8.680;2023-01-10T14:53:31;7.50;99.90
10417;DHT22;62605;49.432;8.680;2023-01-10T14:56:00;7.50;99.90
10417;DHT22;62605;49.432;8.680;2023-01-10T14:58:27;7.50;99.90
10417;DHT22;62605;49.432;8.680;2023-01-10T15:00:55;7.40;99.90
10417;DHT22;62605;49.432;8.680;2023-01-10T15:03:23;7.40;99.90
10417;DHT22;62605;49.432;8.680;2023-01-10T15:05:52;7.40;99.90
10417;DHT22;62605;49.432;8.680;2023-01-10T15:08:22;7.40;99.90
10417;DHT22;62605;49.432;8.680;2023-01-10T15:10:51;7.40;99.90
10417;DHT22;62605;49.432;8.680;2023-01-10T15:13:24;7.40;99.90
10417;DHT22;62605;49.432;8.680;2023-01-10T15:15:53;7.40;99.90
10417;DHT22;62605;49.432;8.680;2023-01-10T15:18:28;7.30;99.90
10417;DHT22;62605;49.432;8.680;2023-01-10T15:20:58;7.40;99.90
10417;DHT22;62605;49.432;8.680;2023-01-10T15:23:33;7.30;99.90
10417;DHT22;62605;49.432;8.680;2023-01-10T15:26:02;7.20;99.90
10417;DHT22;62605;49.432;8.680;2023-01-10T15:28:31;7.20;99.90
10417;DHT22;62605;49.432;8.680;2023-01-10T15:31:00;7.20;99.90
10417;DHT22;62605;49.432;8.680;2023-01-10T15:33:30;7.10;99.90
10417;DHT22;62605;49.432;8.680;2023-01-10T15:36:02;7.10;99.90
10417;DHT22;62605;49.432;8.680;2023-01-10T15:38:30;7.10;99.90
10417;DHT22;62605;49.432;8.680;2023-01-10T15:41:01;7.00;99.90
10417;DHT22;62605;49.432;8.680;2023-01-10T15:43:31;7.10;99.90
10417;DHT22;62605;49.432;8.680;2023-01-10T15:46:00;7.10;99.90
10417;DHT22;62605;49.432;8.680;2023-01-10T15:48:33;7.20;99.90
10417;DHT22;62605;49.432;8.680;2023-01-10T15:51:01;7.20;99.90
10417;DHT22;62605;49.432;8.680;2023-01-10T15:53:56;7.10;99.90
10417;DHT22;62605;49.432;8.680;2023-01-10T15:56:31;7.10;99.90
10417;DHT22;62605;49.432;8.680;2023-01-10T15:59:01;7.00;99.90
10417;DHT22;62605;49.432;8.680;2023-01-10T16:01:29;7.00;99.90
10417;DHT22;62605;49.432;8.680;2023-01-10T16:03:59;7.10;99.90
10417;DHT22;62605;49.432;8.680;2023-01-10T16:06:29;7.00;99.90
10417;DHT22;62605;49.432;8.680;2023-01-10T16:08:57;7.00;99.90
10417;DHT22;62605;49.432;8.680;2023-01-10T16:11:33;7.00;99.90
10417;DHT22;62605;49.432;8.680;2023-01-10T16:14:20;7.00;99.90
10417;DHT22;62605;49.432;8.680;2023-01-10T16:16:47;7.00;99.90